Accedi per prenotare

Caricamento...

Situazione Metar e Taf aeroporto Pisa - Effemeridi Aeroporto Lucca

[Source: ADDS]
METAR
LIRP 141915Z 10013KT 9999 SCT040 14/11 Q1004 NOSIG =
LIRP 141700Z 1418/1518 10012KT 9999 SCT025 SCT050 TEMPO 1418/1518 5000 RA BR TEMPO 1419/1509 11015G25KT 3000 SHRA FEW020CB BKN030
TAF
LIRP 141700Z 1418/1518 10012KT 9999 SCT025 SCT050 TEMPO 1418/1518 5000 RA BR TEMPO 1419/1509 11015G25KT 3000 SHRA FEW020CB BKN030 =
SR / SS: 06:10 / 15:58 UTC (Effemeridi LIQL 2019-11-14)